Saturday, November 18, 2017, 11:58 PM EST
Back to Local

KWAL, Wallops Flight Fac Airport

Location: Wallops Island, VA, United States Lat: 37.933
Local Time: 11:58 PM EST ( 4:58 GMT) Lon: -75.467
Time Zone: US/Eastern Elev: 39 ft

Show me the last for .
Show Coded

Time T Td Feel RH Dir Speed Gust Alt SLP Vis Weather Sky Remarks
2017-11-18 22:54 60 55 - 83 200° 26 32 29.60 29.59 10 FEW060 Peak wind: 33 mph (29 kts) from 200° at 17 min
2017-11-18 21:54 59 53 - 80 200° 21 - 29.63 29.62 10 CLR Peak wind: 36 mph (32 kts) from 200° at 44 min
2017-11-18 20:54 59 52 - 77 200° 22 - 29.64 29.63 10 CLR Peak wind: 34 mph (30 kts) from 190° at 31 min
2017-11-18 19:54 58 53 - 83 190° 23 30 29.65 29.64 10 CLR Peak wind: 33 mph (29 kts) from 190° at 44 min
2017-11-18 18:54 59 53 - 80 200° 23 31 29.68 29.67 10 CLR Peak wind: 32 mph (28 kts) from 190° at 33 min
6-hr Min Temp (7pm): 55.9°F
6-hr Max Temp (7pm): 59.0°F
2017-11-18 17:54 58 52 - 80 190° 20 28 29.70 29.69 10 CLR None
2017-11-18 16:54 58 50 - 74 200° 18 25 29.72 29.71 10 CLR None
2017-11-18 15:54 57 51 - 80 200° 17 25 29.72 29.72 10 CLR None
2017-11-18 14:54 57 49 - 74 200° 17 25 29.74 29.73 10 CLR None
2017-11-18 13:54 57 47 - 68 190° 22 28 29.78 29.77 10 CLR Peak wind: 31 mph (27 kts) from 200° at 55 min
2017-11-18 12:54 57 43 - 59 190° 23 30 29.82 29.81 10 CLR Peak wind: 29 mph (26 kts) from 190° at 53 min
6-hr Min Temp (1pm): 39.9°F
6-hr Max Temp (1pm): 57.9°F
2017-11-18 11:54 57 45 - 63 190° 18 - 29.88 29.87 10 CLR None
2017-11-18 10:54 57 40 - 52 190° 13 22 29.92 29.91 10 CLR Pressure falling rapidly
2017-11-18 09:54 52 41 - 66 190° 12 - 29.97 29.96 10 CLR None
2017-11-18 08:54 49 41 44 73 210° 13 - 30.00 29.98 10 CLR None
2017-11-18 07:54 45 39 40 79 200° 10 - 30.01 30.00 10 CLR None
2017-11-18 06:54 40 35 34 82 210° 9 - 30.03 30.02 10 CLR 6-hr Min Temp (7am): 33.1°F
6-hr Max Temp (7am): 43.0°F
2017-11-18 05:54 42 36 37 78 220° 8 - 30.05 30.04 10 CLR None
2017-11-18 04:54 42 35 37 75 230° 8 - 30.06 30.05 10 CLR None
2017-11-18 03:54 42 34 38 72 220° 7 - 30.06 30.05 10 CLR None
2017-11-18 02:54 37 32 31 81 220° 8 - 30.08 30.07 10 CLR None
2017-11-18 01:54 35 32 32 88 210° 3 - 30.10 30.09 10 CLR None
2017-11-18 00:54 32 31 - 95 - Calm - 30.12 30.10 10 CLR 6-hr Min Temp (1am): 32.0°F
6-hr Max Temp (1am): 39.9°F

Support USWX by starting your Amazon purchase here.